createdAt,value
2019-03-28T00:00:29.466Z,42.62
2019-03-28T00:01:08.920Z,43.00
2019-03-28T00:01:44.414Z,43.02
2019-03-28T00:02:18.438Z,42.90
2019-03-28T00:02:52.203Z,42.13
2019-03-28T00:03:26.055Z,42.90
2019-03-28T00:04:00.805Z,42.95
2019-03-28T00:04:34.556Z,42.80
2019-03-28T00:05:08.756Z,42.30
2019-03-28T00:05:42.720Z,42.08
2019-03-28T00:06:16.812Z,42.53
2019-03-28T00:06:50.655Z,42.48
2019-03-28T00:07:24.585Z,42.13
2019-03-28T00:07:58.512Z,42.67
2019-03-28T00:08:32.322Z,42.80
2019-03-28T00:09:07.953Z,42.48
2019-03-28T00:09:42.035Z,42.05
2019-03-28T00:10:15.919Z,41.42
2019-03-28T00:10:50.018Z,42.80
2019-03-28T00:11:24.210Z,42.08
2019-03-28T00:11:58.216Z,41.65
2019-03-28T00:12:32.006Z,41.08
2019-03-28T00:13:06.035Z,41.10
2019-03-28T00:13:40.004Z,42.20
2019-03-28T00:14:13.884Z,42.33
2019-03-28T00:14:47.776Z,41.75
2019-03-28T00:15:21.587Z,40.90
2019-03-28T00:15:55.519Z,40.88
2019-03-28T00:16:29.407Z,41.48
2019-03-28T00:17:03.358Z,41.45
2019-03-28T00:17:37.316Z,41.45
2019-03-28T00:18:11.788Z,41.13
2019-03-28T00:18:45.655Z,40.73
2019-03-28T00:19:19.402Z,41.23
2019-03-28T00:19:53.110Z,41.42
2019-03-28T00:20:26.936Z,41.60
2019-03-28T00:21:01.140Z,41.02
2019-03-28T00:21:35.198Z,40.35
2019-03-28T00:22:09.160Z,40.73
2019-03-28T00:22:56.878Z,40.33
2019-03-28T00:23:42.270Z,39.48
2019-03-28T00:24:22.323Z,40.50
2019-03-28T00:25:01.534Z,40.83
2019-03-28T00:25:35.378Z,40.92
2019-03-28T00:26:09.349Z,40.53
2019-03-28T00:26:43.280Z,40.83
2019-03-28T00:27:17.103Z,40.28
2019-03-28T00:27:51.045Z,39.95
2019-03-28T00:28:25.072Z,40.70
2019-03-28T00:28:59.020Z,40.10
2019-03-28T00:29:32.989Z,40.28
2019-03-28T00:30:07.121Z,40.43
2019-03-28T00:30:41.034Z,39.98
2019-03-28T00:31:15.000Z,39.88
2019-03-28T00:31:49.161Z,40.65
2019-03-28T00:32:22.962Z,40.03
2019-03-28T00:32:56.932Z,39.88
2019-03-28T00:33:31.915Z,40.17
2019-03-28T00:34:05.784Z,40.43
2019-03-28T00:34:40.624Z,39.92
2019-03-28T00:35:14.677Z,40.10
2019-03-28T00:35:48.582Z,40.23
2019-03-28T00:36:22.466Z,40.33
2019-03-28T00:36:56.410Z,40.00
2019-03-28T00:37:30.418Z,39.35
2019-03-28T00:38:04.341Z,40.20
2019-03-28T00:38:38.247Z,39.50
2019-03-28T00:39:12.218Z,39.40
2019-03-28T00:39:46.196Z,39.20
2019-03-28T00:40:22.914Z,39.63
2019-03-28T00:40:56.833Z,39.83
2019-03-28T00:41:30.767Z,39.53
2019-03-28T00:42:04.743Z,38.70
2019-03-28T00:42:38.670Z,39.90
2019-03-28T00:43:12.557Z,39.42
2019-03-28T00:43:46.451Z,39.67
2019-03-28T00:44:20.226Z,38.92
2019-03-28T00:44:53.985Z,40.08
2019-03-28T00:45:27.878Z,39.80
2019-03-28T00:46:01.870Z,38.90
2019-03-28T00:46:35.861Z,39.45
2019-03-28T00:47:09.715Z,40.15
2019-03-28T00:47:43.629Z,39.48
2019-03-28T00:48:17.686Z,39.60
2019-03-28T00:48:51.550Z,39.50
2019-03-28T00:49:25.463Z,38.83
2019-03-28T00:49:59.347Z,39.18
2019-03-28T00:50:34.930Z,39.03
2019-03-28T00:51:09.713Z,39.75
2019-03-28T00:51:43.680Z,38.90
2019-03-28T00:52:17.614Z,39.90
2019-03-28T00:52:51.513Z,39.25
2019-03-28T00:53:25.421Z,39.65
2019-03-28T00:53:59.411Z,39.18
2019-03-28T00:54:34.705Z,39.38
2019-03-28T00:55:08.643Z,38.98
2019-03-28T00:55:42.698Z,38.78
2019-03-28T00:56:16.492Z,38.85
2019-03-28T00:56:50.376Z,39.18
2019-03-28T00:57:24.447Z,39.42
2019-03-28T00:57:58.232Z,39.45
2019-03-28T00:58:32.289Z,39.38
2019-03-28T00:59:06.193Z,38.92
2019-03-28T00:59:41.136Z,39.50
2019-03-28T01:00:16.144Z,39.78
2019-03-28T01:00:50.143Z,39.63
2019-03-28T01:01:24.036Z,38.80
2019-03-28T01:01:58.006Z,38.45
2019-03-28T01:02:31.906Z,38.78
2019-03-28T01:03:05.806Z,38.88
2019-03-28T01:03:40.023Z,38.70
2019-03-28T01:04:17.420Z,38.78
2019-03-28T01:04:52.079Z,38.50
2019-03-28T01:05:26.130Z,39.13
2019-03-28T01:06:00.047Z,38.90
2019-03-28T01:06:33.944Z,38.65
2019-03-28T01:07:07.961Z,38.90
2019-03-28T01:07:43.446Z,38.42
2019-03-28T01:08:17.466Z,38.28
2019-03-28T01:08:51.505Z,38.92
2019-03-28T01:09:25.407Z,38.20
2019-03-28T01:09:59.308Z,38.25
2019-03-28T01:10:33.299Z,38.40
2019-03-28T01:11:07.185Z,38.33
2019-03-28T01:11:41.026Z,37.90
2019-03-28T01:12:14.987Z,38.48
2019-03-28T01:12:48.884Z,38.40
2019-03-28T01:13:22.791Z,37.90
2019-03-28T01:13:56.783Z,37.85
2019-03-28T01:14:30.565Z,38.75
2019-03-28T01:15:05.086Z,38.78
2019-03-28T01:15:40.517Z,38.40
2019-03-28T01:16:14.400Z,38.63
2019-03-28T01:16:48.252Z,38.05
2019-03-28T01:17:22.190Z,37.83
2019-03-28T01:17:57.066Z,37.73
2019-03-28T01:18:31.020Z,37.85
2019-03-28T01:19:04.901Z,38.15
2019-03-28T01:19:38.660Z,37.50
2019-03-28T01:20:12.808Z,37.90
2019-03-28T01:20:46.590Z,37.85
2019-03-28T01:21:20.423Z,38.15
2019-03-28T01:21:54.369Z,38.00
2019-03-28T01:22:28.393Z,38.25
2019-03-28T01:23:02.239Z,38.10
2019-03-28T01:23:35.992Z,37.53
2019-03-28T01:24:09.805Z,37.53
2019-03-28T01:24:43.681Z,37.75
2019-03-28T01:25:17.425Z,38.00
2019-03-28T01:25:51.415Z,38.13
2019-03-28T01:26:25.133Z,37.58
2019-03-28T01:26:59.146Z,37.35
2019-03-28T01:27:32.900Z,37.20
2019-03-28T01:28:07.359Z,37.20
2019-03-28T01:28:41.322Z,37.08
2019-03-28T01:29:15.513Z,36.48
2019-03-28T01:29:49.343Z,37.73
2019-03-28T01:30:23.635Z,37.13
2019-03-28T01:30:57.447Z,37.20
2019-03-28T01:31:31.512Z,37.55
2019-03-28T01:32:05.262Z,37.55
2019-03-28T01:32:39.124Z,38.17
2019-03-28T01:33:13.049Z,36.77
2019-03-28T01:33:47.010Z,37.00
2019-03-28T01:34:20.950Z,36.53
2019-03-28T01:34:54.623Z,37.53
2019-03-28T01:35:28.347Z,37.48
2019-03-28T01:36:02.327Z,37.23
2019-03-28T01:36:36.189Z,37.93
2019-03-28T01:37:11.066Z,37.20
2019-03-28T01:37:44.795Z,37.53
2019-03-28T01:38:18.678Z,37.25
2019-03-28T01:38:52.528Z,37.33
2019-03-28T01:39:26.551Z,37.28
2019-03-28T01:40:00.829Z,36.95
2019-03-28T01:40:36.162Z,37.67
2019-03-28T01:41:11.876Z,37.70
2019-03-28T01:41:45.862Z,37.45
2019-03-28T01:42:19.829Z,37.80
2019-03-28T01:42:53.842Z,37.60
2019-03-28T01:43:27.806Z,38.08
2019-03-28T01:44:01.847Z,37.17
2019-03-28T01:44:35.914Z,37.85
2019-03-28T01:45:10.923Z,38.08
2019-03-28T01:45:44.938Z,37.83
2019-03-28T01:46:19.056Z,37.50
2019-03-28T01:46:53.020Z,37.38
2019-03-28T01:47:26.903Z,37.30
2019-03-28T01:48:00.750Z,37.65
2019-03-28T01:48:34.705Z,38.15
2019-03-28T01:49:08.769Z,38.33
2019-03-28T01:49:42.610Z,37.95
2019-03-28T01:50:16.539Z,37.88
2019-03-28T01:50:50.334Z,38.95
2019-03-28T01:51:24.263Z,37.35
2019-03-28T01:51:58.210Z,38.45
2019-03-28T01:52:32.164Z,38.00
2019-03-28T01:53:06.109Z,37.10
2019-03-28T01:53:40.053Z,37.33
2019-03-28T01:54:14.119Z,38.42
2019-03-28T01:54:47.976Z,38.05
2019-03-28T01:55:21.818Z,37.45
2019-03-28T01:55:55.777Z,37.73
2019-03-28T01:56:29.644Z,38.23
2019-03-28T01:57:10.926Z,38.02
2019-03-28T01:57:39.481Z,38.42
2019-03-28T01:58:13.429Z,38.95
2019-03-28T01:58:47.323Z,38.50
2019-03-28T01:59:21.286Z,38.23
2019-03-28T01:59:55.491Z,37.98
2019-03-28T02:00:29.316Z,38.40
2019-03-28T02:01:03.840Z,38.45
2019-03-28T02:01:38.147Z,38.42
2019-03-28T02:02:12.104Z,38.92
2019-03-28T02:02:45.953Z,38.83
2019-03-28T02:03:19.818Z,38.98
2019-03-28T02:03:53.666Z,38.55
2019-03-28T02:04:27.774Z,38.73
2019-03-28T02:05:01.630Z,38.78
2019-03-28T02:05:35.524Z,39.58
2019-03-28T02:06:10.458Z,39.13
2019-03-28T02:06:44.313Z,39.08
2019-03-28T02:07:18.311Z,39.58
2019-03-28T02:07:52.330Z,39.33
2019-03-28T02:08:26.047Z,39.08
2019-03-28T02:09:00.042Z,39.18
2019-03-28T02:09:33.894Z,39.55
2019-03-28T02:10:07.926Z,39.27
2019-03-28T02:10:42.865Z,39.53
2019-03-28T02:11:16.856Z,38.40
2019-03-28T02:11:51.895Z,39.18
2019-03-28T02:12:26.015Z,39.35
2019-03-28T02:12:59.997Z,38.42
2019-03-28T02:13:33.765Z,39.23
2019-03-28T02:14:08.987Z,38.92
2019-03-28T02:14:42.973Z,39.63
2019-03-28T02:15:16.727Z,38.88
2019-03-28T02:15:50.651Z,39.03
2019-03-28T02:16:24.504Z,38.78
2019-03-28T02:16:58.617Z,38.63
2019-03-28T02:17:32.485Z,39.65
2019-03-28T02:18:06.512Z,39.70
2019-03-28T02:18:40.431Z,39.78
2019-03-28T02:19:15.833Z,39.75
2019-03-28T02:19:49.794Z,39.45
2019-03-28T02:20:23.731Z,39.60
2019-03-28T02:20:57.594Z,39.70
2019-03-28T02:21:31.499Z,40.65
2019-03-28T02:22:05.340Z,40.48
2019-03-28T02:22:39.311Z,39.88
2019-03-28T02:23:13.228Z,39.80
2019-03-28T02:23:47.053Z,40.10
2019-03-28T02:24:20.807Z,40.28
2019-03-28T02:24:55.010Z,40.15
2019-03-28T02:25:28.982Z,39.05
2019-03-28T02:26:02.796Z,40.92
2019-03-28T02:26:36.721Z,39.90
2019-03-28T02:27:23.055Z,40.15
2019-03-28T02:27:46.331Z,40.85
2019-03-28T02:28:20.213Z,41.28
2019-03-28T02:28:54.133Z,41.02
2019-03-28T02:29:27.953Z,40.63
2019-03-28T02:30:01.911Z,40.87
2019-03-28T02:30:35.892Z,40.30
2019-03-28T02:31:09.904Z,40.45
2019-03-28T02:31:43.751Z,41.18
2019-03-28T02:32:17.509Z,40.40
2019-03-28T02:32:51.370Z,40.55
2019-03-28T02:33:25.566Z,40.23
2019-03-28T02:33:59.587Z,40.28
2019-03-28T02:34:33.447Z,40.00
2019-03-28T02:35:08.191Z,40.60
2019-03-28T02:35:41.970Z,39.92
2019-03-28T02:36:15.721Z,40.80
2019-03-28T02:36:51.279Z,40.63
2019-03-28T02:37:25.193Z,39.45
2019-03-28T02:37:59.817Z,39.78
2019-03-28T02:38:33.703Z,40.15
2019-03-28T02:39:07.478Z,40.10
2019-03-28T02:39:41.394Z,39.18
2019-03-28T02:40:16.761Z,39.85
2019-03-28T02:40:50.934Z,39.75
2019-03-28T02:41:24.828Z,39.48
2019-03-28T02:42:01.495Z,39.50
2019-03-28T02:42:35.733Z,40.03
2019-03-28T02:43:09.701Z,40.30
2019-03-28T02:43:43.589Z,39.90
2019-03-28T02:44:17.519Z,40.03
2019-03-28T02:44:52.987Z,39.83
2019-03-28T02:45:26.887Z,39.70
2019-03-28T02:46:01.673Z,39.30
2019-03-28T02:46:35.477Z,39.63
2019-03-28T02:47:09.549Z,40.23
2019-03-28T02:47:44.217Z,39.78
2019-03-28T02:48:17.974Z,40.70
2019-03-28T02:48:52.017Z,39.25
2019-03-28T02:49:25.923Z,39.70
2019-03-28T02:49:59.728Z,39.85
2019-03-28T02:50:33.668Z,39.45
2019-03-28T02:51:07.706Z,39.70
2019-03-28T02:51:41.674Z,38.75
2019-03-28T02:52:15.558Z,39.25
2019-03-28T02:52:49.561Z,39.65
2019-03-28T02:53:23.552Z,40.65
2019-03-28T02:53:57.449Z,39.70
2019-03-28T02:54:31.674Z,39.80
2019-03-28T02:55:07.205Z,39.80
2019-03-28T02:55:41.193Z,39.63
2019-03-28T02:56:15.829Z,39.88
2019-03-28T02:56:50.034Z,39.13
2019-03-28T02:57:40.191Z,39.60
2019-03-28T02:58:00.911Z,40.00
2019-03-28T02:58:34.666Z,39.70
2019-03-28T02:59:08.766Z,39.42
2019-03-28T02:59:42.797Z,39.85
2019-03-28T03:00:17.006Z,39.20
2019-03-28T03:00:51.119Z,40.25
2019-03-28T03:01:25.221Z,39.25
2019-03-28T03:01:58.999Z,39.05
2019-03-28T03:02:33.057Z,39.78
2019-03-28T03:03:06.993Z,39.80
2019-03-28T03:03:41.290Z,40.35
2019-03-28T03:04:15.151Z,38.80
2019-03-28T03:04:49.468Z,39.95
2019-03-28T03:05:23.508Z,39.75
2019-03-28T03:05:59.025Z,38.25
2019-03-28T03:06:34.562Z,39.30
2019-03-28T03:07:08.491Z,38.88
2019-03-28T03:07:42.360Z,38.58
2019-03-28T03:08:16.331Z,38.98
2019-03-28T03:08:50.303Z,39.05
2019-03-28T03:09:24.968Z,38.85
2019-03-28T03:10:00.932Z,38.83
2019-03-28T03:10:34.867Z,38.78
2019-03-28T03:11:09.561Z,39.05
2019-03-28T03:11:43.738Z,39.63
2019-03-28T03:12:17.476Z,39.00
2019-03-28T03:12:51.873Z,39.15
2019-03-28T03:13:25.714Z,39.48
2019-03-28T03:13:59.708Z,38.92
2019-03-28T03:14:33.647Z,38.50
2019-03-28T03:15:08.083Z,38.92
2019-03-28T03:15:42.019Z,38.58
2019-03-28T03:16:15.876Z,38.53
2019-03-28T03:16:49.696Z,38.98
2019-03-28T03:17:23.584Z,38.92
2019-03-28T03:17:57.539Z,38.55
2019-03-28T03:18:31.543Z,38.67
2019-03-28T03:19:05.548Z,38.50
2019-03-28T03:19:39.413Z,38.60
2019-03-28T03:20:13.647Z,38.50
2019-03-28T03:20:47.747Z,38.38
2019-03-28T03:21:21.492Z,38.73
2019-03-28T03:21:56.273Z,37.83
2019-03-28T03:22:30.019Z,38.02
2019-03-28T03:23:04.008Z,38.28
2019-03-28T03:23:37.853Z,38.50
2019-03-28T03:24:12.148Z,37.78
2019-03-28T03:24:46.020Z,38.67
2019-03-28T03:25:19.899Z,38.28
2019-03-28T03:25:53.775Z,38.23
2019-03-28T03:26:27.867Z,37.88
2019-03-28T03:27:01.740Z,38.23
2019-03-28T03:27:35.724Z,38.10
2019-03-28T03:28:09.491Z,37.78
2019-03-28T03:28:43.427Z,38.38
2019-03-28T03:29:17.249Z,37.90
2019-03-28T03:29:51.141Z,38.10
2019-03-28T03:30:24.991Z,37.48
2019-03-28T03:30:58.771Z,38.25
2019-03-28T03:31:32.589Z,38.33
2019-03-28T03:32:06.369Z,37.15
2019-03-28T03:32:40.258Z,37.80
2019-03-28T03:33:14.157Z,38.48
2019-03-28T03:33:47.871Z,38.28
2019-03-28T03:34:21.754Z,38.10
2019-03-28T03:34:56.602Z,37.85
2019-03-28T03:35:30.513Z,37.33
2019-03-28T03:36:04.586Z,38.33
2019-03-28T03:36:38.534Z,38.23
2019-03-28T03:37:13.493Z,39.00
2019-03-28T03:37:47.349Z,37.93
2019-03-28T03:38:21.704Z,37.85
2019-03-28T03:38:56.161Z,38.85
2019-03-28T03:39:30.062Z,38.58
2019-03-28T03:40:06.108Z,38.38
2019-03-28T03:40:40.230Z,38.13
2019-03-28T03:41:14.125Z,38.20
2019-03-28T03:41:48.036Z,38.88
2019-03-28T03:42:21.865Z,38.23
2019-03-28T03:42:56.778Z,38.28
2019-03-28T03:43:30.991Z,38.30
2019-03-28T03:44:04.912Z,37.93
2019-03-28T03:44:38.974Z,38.55
2019-03-28T03:45:13.518Z,38.23
2019-03-28T03:45:47.483Z,37.73
2019-03-28T03:46:21.374Z,37.80
2019-03-28T03:46:55.226Z,38.13
2019-03-28T03:47:29.256Z,38.63
2019-03-28T03:48:03.232Z,37.98
2019-03-28T03:48:37.214Z,38.13
2019-03-28T03:49:11.457Z,38.25
2019-03-28T03:49:45.259Z,38.35
2019-03-28T03:50:27.652Z,38.00
2019-03-28T03:51:01.551Z,37.67
2019-03-28T03:51:35.339Z,38.05
2019-03-28T03:52:09.331Z,38.53
2019-03-28T03:52:43.277Z,38.00
2019-03-28T03:53:17.074Z,37.45
2019-03-28T03:53:51.202Z,38.10
2019-03-28T03:54:25.098Z,36.93
2019-03-28T03:55:00.008Z,37.63
2019-03-28T03:55:33.855Z,37.95
2019-03-28T03:56:07.644Z,37.80
2019-03-28T03:56:41.585Z,37.48
2019-03-28T03:57:15.481Z,37.98
2019-03-28T03:57:49.457Z,37.70
2019-03-28T03:58:23.334Z,37.55
2019-03-28T03:58:57.341Z,37.38
2019-03-28T03:59:32.650Z,37.53
2019-03-28T04:00:07.272Z,37.48
2019-03-28T04:00:41.216Z,37.20
2019-03-28T04:01:15.138Z,37.78
2019-03-28T04:01:49.046Z,37.48
2019-03-28T04:02:24.600Z,37.28
2019-03-28T04:02:58.532Z,37.23
2019-03-28T04:03:32.318Z,37.42
2019-03-28T04:04:06.304Z,37.28
2019-03-28T04:04:40.333Z,37.23
2019-03-28T04:05:14.228Z,37.75
2019-03-28T04:05:48.275Z,37.55
2019-03-28T04:06:24.215Z,37.03
2019-03-28T04:06:59.192Z,36.85
2019-03-28T04:07:32.995Z,37.13
2019-03-28T04:08:06.883Z,37.48
2019-03-28T04:08:41.669Z,36.88
2019-03-28T04:09:16.066Z,37.03
2019-03-28T04:09:50.031Z,37.10
2019-03-28T04:10:23.918Z,36.77
2019-03-28T04:10:57.772Z,37.38
2019-03-28T04:11:31.694Z,37.23
2019-03-28T04:12:05.545Z,37.00
2019-03-28T04:12:41.035Z,36.98
2019-03-28T04:13:14.979Z,36.17
2019-03-28T04:13:49.977Z,36.77
2019-03-28T04:14:23.793Z,37.03
2019-03-28T04:14:57.817Z,36.42
2019-03-28T04:15:31.756Z,37.38
2019-03-28T04:16:05.710Z,37.33
2019-03-28T04:16:39.673Z,36.30
2019-03-28T04:17:13.539Z,37.10
2019-03-28T04:17:47.826Z,36.65
2019-03-28T04:18:23.609Z,37.08
2019-03-28T04:18:57.546Z,36.98
2019-03-28T04:19:32.147Z,37.30
2019-03-28T04:20:06.515Z,36.65
2019-03-28T04:20:40.593Z,37.00
2019-03-28T04:21:14.434Z,37.42
2019-03-28T04:21:48.424Z,36.85
2019-03-28T04:22:22.150Z,37.03
2019-03-28T04:22:56.109Z,37.00
2019-03-28T04:23:30.052Z,36.77
2019-03-28T04:24:04.033Z,36.30
2019-03-28T04:24:37.766Z,36.77
2019-03-28T04:25:11.666Z,35.85
2019-03-28T04:25:45.421Z,36.88
2019-03-28T04:26:19.330Z,37.15
2019-03-28T04:26:53.146Z,36.68
2019-03-28T04:27:27.147Z,35.38
2019-03-28T04:28:00.991Z,35.73
2019-03-28T04:28:34.832Z,36.45
2019-03-28T04:29:08.595Z,36.33
2019-03-28T04:29:42.462Z,35.52
2019-03-28T04:30:16.214Z,36.33
2019-03-28T04:30:49.989Z,35.78
2019-03-28T04:31:23.881Z,35.50
2019-03-28T04:31:59.286Z,35.35
2019-03-28T04:32:33.210Z,35.78
2019-03-28T04:33:07.062Z,34.50
2019-03-28T04:33:40.892Z,36.03
2019-03-28T04:34:14.743Z,35.43
2019-03-28T04:34:48.605Z,35.85
2019-03-28T04:35:22.479Z,35.52
2019-03-28T04:35:56.339Z,35.88
2019-03-28T04:36:32.913Z,35.40
2019-03-28T04:37:06.785Z,36.10
2019-03-28T04:37:40.770Z,35.75
2019-03-28T04:38:14.725Z,34.40
2019-03-28T04:38:48.491Z,34.92
2019-03-28T04:39:22.253Z,34.88
2019-03-28T04:39:56.022Z,34.73
2019-03-28T04:40:29.862Z,35.03
2019-03-28T04:41:03.878Z,35.00
2019-03-28T04:41:37.869Z,34.95
2019-03-28T04:42:11.902Z,35.43
2019-03-28T04:42:46.159Z,34.65
2019-03-28T04:43:20.277Z,35.03
2019-03-28T04:43:55.932Z,35.08
2019-03-28T04:44:29.791Z,34.80
2019-03-28T04:45:05.571Z,34.80
2019-03-28T04:45:39.519Z,35.10
2019-03-28T04:46:13.335Z,35.48
2019-03-28T04:46:47.149Z,35.78
2019-03-28T04:47:21.001Z,34.75
2019-03-28T04:47:54.814Z,35.08
2019-03-28T04:48:28.647Z,35.05
2019-03-28T04:49:02.624Z,35.43
2019-03-28T04:49:36.485Z,34.45
2019-03-28T04:50:10.978Z,35.20
2019-03-28T04:50:44.923Z,34.60
2019-03-28T04:51:18.782Z,34.88
2019-03-28T04:51:53.400Z,34.78
2019-03-28T04:52:27.433Z,34.70
2019-03-28T04:53:01.299Z,35.17
2019-03-28T04:53:35.232Z,34.50
2019-03-28T04:54:10.137Z,35.03
2019-03-28T04:54:44.053Z,34.88
2019-03-28T04:55:18.035Z,35.10
2019-03-28T04:55:51.923Z,34.53
2019-03-28T04:56:26.229Z,34.73
2019-03-28T04:57:00.129Z,34.95
2019-03-28T04:57:34.248Z,35.35
2019-03-28T04:58:08.245Z,35.28
2019-03-28T04:58:44.817Z,34.25
2019-03-28T04:59:17.974Z,35.08
2019-03-28T04:59:51.923Z,34.60
2019-03-28T05:00:25.880Z,34.30
2019-03-28T05:00:59.872Z,34.25
2019-03-28T05:01:34.822Z,33.33
2019-03-28T05:02:08.625Z,33.78
2019-03-28T05:02:45.821Z,34.50
2019-03-28T05:03:19.848Z,33.63
2019-03-28T05:03:53.729Z,33.98
2019-03-28T05:04:27.524Z,34.20
2019-03-28T05:05:01.613Z,34.25
2019-03-28T05:05:36.320Z,34.05
2019-03-28T05:06:10.218Z,33.67
2019-03-28T05:06:44.111Z,33.80
2019-03-28T05:07:19.142Z,33.78
2019-03-28T05:07:53.182Z,33.38
2019-03-28T05:08:27.904Z,33.90
2019-03-28T05:09:02.010Z,33.60
2019-03-28T05:09:36.121Z,33.67
2019-03-28T05:10:10.335Z,34.30
2019-03-28T05:10:45.772Z,33.53
2019-03-28T05:11:19.700Z,33.25
2019-03-28T05:11:53.575Z,33.33
2019-03-28T05:12:27.339Z,33.38
2019-03-28T05:13:01.227Z,33.48
2019-03-28T05:13:35.160Z,33.83
2019-03-28T05:14:09.042Z,33.45
2019-03-28T05:14:42.901Z,33.70
2019-03-28T05:15:16.906Z,33.80
2019-03-28T05:15:50.888Z,33.60
2019-03-28T05:16:24.673Z,33.13
2019-03-28T05:16:58.513Z,33.23
2019-03-28T05:17:32.374Z,33.70
2019-03-28T05:18:06.428Z,33.15
2019-03-28T05:18:40.559Z,33.20
2019-03-28T05:19:14.499Z,33.40
2019-03-28T05:19:49.474Z,33.18
2019-03-28T05:20:23.306Z,33.80
2019-03-28T05:20:57.121Z,33.38
2019-03-28T05:21:31.430Z,33.60
2019-03-28T05:22:05.598Z,33.08
2019-03-28T05:22:40.544Z,34.03
2019-03-28T05:23:14.541Z,32.95
2019-03-28T05:23:48.260Z,33.33
2019-03-28T05:24:25.240Z,33.55
2019-03-28T05:24:58.629Z,33.48
2019-03-28T05:25:32.856Z,32.55
2019-03-28T05:26:06.829Z,33.38
2019-03-28T05:26:41.292Z,32.67
2019-03-28T05:27:16.624Z,32.70
2019-03-28T05:27:50.867Z,32.90
2019-03-28T05:28:25.407Z,32.75
2019-03-28T05:29:00.854Z,32.50
2019-03-28T05:29:34.585Z,32.70
2019-03-28T05:30:09.512Z,32.23
2019-03-28T05:30:43.305Z,32.35
2019-03-28T05:31:17.419Z,32.88
2019-03-28T05:31:51.254Z,32.35
2019-03-28T05:32:25.209Z,32.13
2019-03-28T05:32:59.033Z,32.15
2019-03-28T05:33:32.997Z,32.70
2019-03-28T05:34:06.938Z,32.05
2019-03-28T05:34:40.811Z,32.25
2019-03-28T05:35:14.655Z,32.45
2019-03-28T05:35:48.522Z,32.25
2019-03-28T05:36:22.275Z,32.15
2019-03-28T05:36:57.731Z,31.80
2019-03-28T05:37:31.492Z,32.70
2019-03-28T05:38:05.594Z,32.10
2019-03-28T05:38:39.429Z,32.10
2019-03-28T05:39:13.389Z,32.58
2019-03-28T05:39:47.125Z,32.50
2019-03-28T05:40:22.793Z,32.03
2019-03-28T05:40:56.909Z,32.33
2019-03-28T05:41:30.667Z,32.38
2019-03-28T05:42:04.513Z,32.53
2019-03-28T05:42:38.494Z,32.28
2019-03-28T05:43:12.328Z,31.70
2019-03-28T05:43:46.247Z,32.08
2019-03-28T05:44:21.150Z,32.58
2019-03-28T05:44:54.928Z,32.38
2019-03-28T05:45:28.884Z,32.38
2019-03-28T05:46:02.830Z,32.50
2019-03-28T05:46:36.749Z,32.38
2019-03-28T05:47:10.772Z,32.25
2019-03-28T05:47:44.630Z,32.38
2019-03-28T05:48:18.614Z,32.90
2019-03-28T05:48:52.386Z,32.73
2019-03-28T05:49:26.163Z,32.50
2019-03-28T05:50:00.391Z,32.17
2019-03-28T05:50:34.433Z,31.65
2019-03-28T05:51:08.389Z,32.42
2019-03-28T05:51:42.185Z,32.42
2019-03-28T05:52:16.002Z,32.20
2019-03-28T05:52:49.983Z,32.70
2019-03-28T05:53:23.845Z,32.60
2019-03-28T05:53:57.876Z,32.50
2019-03-28T05:54:31.878Z,32.73
2019-03-28T05:55:06.314Z,32.42
2019-03-28T05:55:41.221Z,32.03
2019-03-28T05:56:15.254Z,32.60
2019-03-28T05:56:49.136Z,33.00
2019-03-28T05:57:23.133Z,32.20
2019-03-28T05:57:57.141Z,32.80
2019-03-28T05:58:30.946Z,32.83
2019-03-28T05:59:10.772Z,32.50
2019-03-28T05:59:40.769Z,32.63
2019-03-28T06:00:15.003Z,32.40
2019-03-28T06:00:51.348Z,32.33
2019-03-28T06:01:24.591Z,32.75
2019-03-28T06:01:59.563Z,32.45
2019-03-28T06:02:33.598Z,32.03
2019-03-28T06:03:07.361Z,32.80
2019-03-28T06:03:41.269Z,32.45
2019-03-28T06:04:16.701Z,32.80
2019-03-28T06:04:50.836Z,32.48
2019-03-28T06:05:26.366Z,32.28
2019-03-28T06:06:00.394Z,33.10
2019-03-28T06:06:34.299Z,33.02
2019-03-28T06:07:08.903Z,32.48
2019-03-28T06:07:43.236Z,32.65
2019-03-28T06:08:17.151Z,32.13
2019-03-28T06:08:51.090Z,33.45
2019-03-28T06:09:25.061Z,33.28
2019-03-28T06:09:58.899Z,32.60
2019-03-28T06:10:34.513Z,33.00
2019-03-28T06:11:08.248Z,33.05
2019-03-28T06:11:42.049Z,32.80
2019-03-28T06:12:18.873Z,33.20
2019-03-28T06:12:51.873Z,32.95
2019-03-28T06:13:25.723Z,33.08
2019-03-28T06:14:00.721Z,33.25
2019-03-28T06:14:34.677Z,33.33
2019-03-28T06:15:08.672Z,32.33
2019-03-28T06:15:42.619Z,32.28
2019-03-28T06:16:16.547Z,33.50
2019-03-28T06:16:50.866Z,33.25
2019-03-28T06:17:24.793Z,33.40
2019-03-28T06:17:58.522Z,34.13
2019-03-28T06:18:32.369Z,33.25
2019-03-28T06:19:06.314Z,33.58
2019-03-28T06:19:41.760Z,33.30
2019-03-28T06:20:15.721Z,34.05
2019-03-28T06:20:49.722Z,33.67
2019-03-28T06:21:23.679Z,33.58
2019-03-28T06:21:57.704Z,33.95
2019-03-28T06:22:31.475Z,34.67
2019-03-28T06:23:05.469Z,33.83
2019-03-28T06:23:39.471Z,33.98
2019-03-28T06:24:13.814Z,33.90
2019-03-28T06:24:47.646Z,34.80
2019-03-28T06:25:22.841Z,33.92
2019-03-28T06:25:57.083Z,33.55
2019-03-28T06:26:30.875Z,34.48
2019-03-28T06:27:04.715Z,33.95
2019-03-28T06:27:38.476Z,34.38
2019-03-28T06:28:13.676Z,35.15
2019-03-28T06:28:47.615Z,34.85
2019-03-28T06:29:24.240Z,34.80
2019-03-28T06:29:57.337Z,35.23
2019-03-28T06:30:31.517Z,34.50
2019-03-28T06:31:05.399Z,35.10
2019-03-28T06:31:39.387Z,34.78
2019-03-28T06:32:13.303Z,35.40
2019-03-28T06:32:47.127Z,34.88
2019-03-28T06:33:21.173Z,35.50
2019-03-28T06:33:55.115Z,33.92
2019-03-28T06:34:29.008Z,35.13
2019-03-28T06:35:02.997Z,35.33
2019-03-28T06:35:36.885Z,34.85
2019-03-28T06:36:10.661Z,34.48
2019-03-28T06:36:44.441Z,35.98
2019-03-28T06:37:18.271Z,35.00
2019-03-28T06:37:52.223Z,34.88
2019-03-28T06:38:25.989Z,34.73
2019-03-28T06:39:00.265Z,35.15
2019-03-28T06:39:36.460Z,34.60
2019-03-28T06:40:10.415Z,35.48
2019-03-28T06:40:44.167Z,35.33
2019-03-28T06:41:18.081Z,34.67
2019-03-28T06:41:51.847Z,35.40
2019-03-28T06:42:25.637Z,34.60
2019-03-28T06:42:59.572Z,35.50
2019-03-28T06:43:33.417Z,35.20
2019-03-28T06:44:07.182Z,34.55
2019-03-28T06:44:41.705Z,34.83
2019-03-28T06:45:15.647Z,35.60
2019-03-28T06:45:49.641Z,35.13
2019-03-28T06:46:23.549Z,35.33
2019-03-28T06:46:57.444Z,35.73
2019-03-28T06:47:31.308Z,35.33
2019-03-28T06:48:06.280Z,34.85
2019-03-28T06:48:40.217Z,35.30
2019-03-28T06:49:14.081Z,34.55
2019-03-28T06:49:47.981Z,33.78
2019-03-28T06:50:21.799Z,33.85
2019-03-28T06:50:55.654Z,33.63
2019-03-28T06:51:29.517Z,34.35
2019-03-28T06:52:03.478Z,34.65
2019-03-28T06:52:37.442Z,34.78
2019-03-28T06:53:11.342Z,34.18
2019-03-28T06:53:45.254Z,34.15
2019-03-28T06:54:19.235Z,33.20
2019-03-28T06:54:53.084Z,33.73
2019-03-28T06:55:27.219Z,33.25
2019-03-28T06:56:01.065Z,33.05
2019-03-28T06:56:34.931Z,33.73
2019-03-28T06:57:08.738Z,33.02
2019-03-28T06:57:42.581Z,33.50
2019-03-28T06:58:16.472Z,32.93
2019-03-28T06:58:50.347Z,33.20
2019-03-28T06:59:36.731Z,34.00
2019-03-28T07:00:00.820Z,32.78
2019-03-28T07:00:34.655Z,32.75
2019-03-28T07:01:08.447Z,33.15
2019-03-28T07:01:42.231Z,32.38
2019-03-28T07:02:16.287Z,32.28
2019-03-28T07:02:50.805Z,32.98
2019-03-28T07:03:24.809Z,32.80
2019-03-28T07:03:58.665Z,31.73
2019-03-28T07:04:34.060Z,32.75
2019-03-28T07:05:08.023Z,32.73
2019-03-28T07:05:41.926Z,33.25
2019-03-28T07:06:15.963Z,32.80
2019-03-28T07:06:52.457Z,32.50
2019-03-28T07:07:26.327Z,33.13
2019-03-28T07:08:00.255Z,33.58
2019-03-28T07:08:34.200Z,33.05
2019-03-28T07:09:13.503Z,32.83
2019-03-28T07:09:47.525Z,32.73
2019-03-28T07:10:21.475Z,32.23
2019-03-28T07:10:57.893Z,32.17
2019-03-28T07:11:31.243Z,32.48
2019-03-28T07:12:05.247Z,32.83
2019-03-28T07:12:41.913Z,31.70
2019-03-28T07:13:15.631Z,31.82
2019-03-28T07:13:49.553Z,32.50
2019-03-28T07:14:23.449Z,32.60
2019-03-28T07:14:59.603Z,32.90
2019-03-28T07:15:36.496Z,32.73
2019-03-28T07:16:10.390Z,32.93
2019-03-28T07:16:44.229Z,32.48
2019-03-28T07:17:18.302Z,32.55
2019-03-28T07:17:52.481Z,33.42
2019-03-28T07:18:27.486Z,32.88
2019-03-28T07:19:01.447Z,33.58
2019-03-28T07:19:35.903Z,32.20
2019-03-28T07:20:10.057Z,32.63
2019-03-28T07:20:43.962Z,32.25